sensor_id;sensor_type;location;lat;lon;timestamp;P1;durP1;ratioP1;P2;durP2;ratioP2
78563;SDS011;67856;47.754;19.088;2023-04-01T00:02:25;4.17;;;2.20;;
78563;SDS011;67856;47.754;19.088;2023-04-01T00:05:28;4.35;;;2.30;;
78563;SDS011;67856;47.754;19.088;2023-04-01T00:08:30;3.58;;;2.20;;
78563;SDS011;67856;47.754;19.088;2023-04-01T00:11:33;3.63;;;2.20;;
78563;SDS011;67856;47.754;19.088;2023-04-01T00:14:35;4.17;;;2.10;;
78563;SDS011;67856;47.754;19.088;2023-04-01T00:17:38;4.10;;;2.17;;
78563;SDS011;67856;47.754;19.088;2023-04-01T00:20:48;3.97;;;2.00;;
78563;SDS011;67856;47.754;19.088;2023-04-01T00:23:51;4.72;;;2.10;;
78563;SDS011;67856;47.754;19.088;2023-04-01T00:26:53;3.70;;;1.90;;
78563;SDS011;67856;47.754;19.088;2023-04-01T00:29:56;3.90;;;2.00;;
78563;SDS011;67856;47.754;19.088;2023-04-01T00:32:59;3.63;;;2.00;;
78563;SDS011;67856;47.754;19.088;2023-04-01T00:36:07;4.15;;;2.20;;
78563;SDS011;67856;47.754;19.088;2023-04-01T00:39:10;3.78;;;2.10;;
78563;SDS011;67856;47.754;19.088;2023-04-01T00:42:12;3.38;;;2.10;;
78563;SDS011;67856;47.754;19.088;2023-04-01T00:45:26;3.80;;;2.10;;
78563;SDS011;67856;47.754;19.088;2023-04-01T00:48:30;3.80;;;2.00;;
78563;SDS011;67856;47.754;19.088;2023-04-01T00:51:34;3.90;;;1.90;;
78563;SDS011;67856;47.754;19.088;2023-04-01T00:54:41;3.85;;;1.90;;
78563;SDS011;67856;47.754;19.088;2023-04-01T00:57:45;3.33;;;1.90;;
78563;SDS011;67856;47.754;19.088;2023-04-01T01:00:48;5.00;;;2.00;;
78563;SDS011;67856;47.754;19.088;2023-04-01T01:03:51;3.73;;;1.87;;
78563;SDS011;67856;47.754;19.088;2023-04-01T01:07:03;2.80;;;1.80;;
78563;SDS011;67856;47.754;19.088;2023-04-01T01:10:26;3.60;;;1.90;;
78563;SDS011;67856;47.754;19.088;2023-04-01T01:16:54;3.57;;;1.80;;
78563;SDS011;67856;47.754;19.088;2023-04-01T01:26:46;3.63;;;1.95;;
78563;SDS011;67856;47.754;19.088;2023-04-01T01:29:58;3.00;;;1.60;;
78563;SDS011;67856;47.754;19.088;2023-04-01T01:36:44;3.13;;;1.87;;
78563;SDS011;67856;47.754;19.088;2023-04-01T01:39:49;3.60;;;1.98;;
78563;SDS011;67856;47.754;19.088;2023-04-01T01:42:56;4.28;;;1.88;;
78563;SDS011;67856;47.754;19.088;2023-04-01T01:46:02;2.42;;;1.58;;
78563;SDS011;67856;47.754;19.088;2023-04-01T01:49:10;3.13;;;1.87;;
78563;SDS011;67856;47.754;19.088;2023-04-01T01:52:14;4.00;;;2.10;;
78563;SDS011;67856;47.754;19.088;2023-04-01T01:55:28;3.53;;;1.83;;
78563;SDS011;67856;47.754;19.088;2023-04-01T01:58:34;2.75;;;1.50;;
78563;SDS011;67856;47.754;19.088;2023-04-01T02:01:46;2.85;;;2.08;;
78563;SDS011;67856;47.754;19.088;2023-04-01T02:04:53;2.57;;;1.67;;
78563;SDS011;67856;47.754;19.088;2023-04-01T02:08:05;3.40;;;1.93;;
78563;SDS011;67856;47.754;19.088;2023-04-01T02:11:12;3.72;;;1.80;;
78563;SDS011;67856;47.754;19.088;2023-04-01T02:14:21;2.78;;;1.60;;
78563;SDS011;67856;47.754;19.088;2023-04-01T02:17:27;3.40;;;1.92;;
78563;SDS011;67856;47.754;19.088;2023-04-01T02:20:32;2.77;;;1.83;;
78563;SDS011;67856;47.754;19.088;2023-04-01T02:23:35;2.97;;;1.90;;
78563;SDS011;67856;47.754;19.088;2023-04-01T02:26:38;3.03;;;2.00;;
78563;SDS011;67856;47.754;19.088;2023-04-01T02:29:41;2.65;;;1.67;;
78563;SDS011;67856;47.754;19.088;2023-04-01T02:32:43;3.15;;;1.90;;
78563;SDS011;67856;47.754;19.088;2023-04-01T02:35:50;3.47;;;1.90;;
78563;SDS011;67856;47.754;19.088;2023-04-01T02:38:52;2.77;;;1.60;;
78563;SDS011;67856;47.754;19.088;2023-04-01T02:41:56;2.33;;;1.40;;
78563;SDS011;67856;47.754;19.088;2023-04-01T02:44:59;3.45;;;1.38;;
78563;SDS011;67856;47.754;19.088;2023-04-01T02:48:01;3.58;;;1.60;;
78563;SDS011;67856;47.754;19.088;2023-04-01T02:51:04;3.67;;;1.67;;
78563;SDS011;67856;47.754;19.088;2023-04-01T02:54:06;2.93;;;1.70;;
78563;SDS011;67856;47.754;19.088;2023-04-01T02:57:09;3.15;;;1.55;;
78563;SDS011;67856;47.754;19.088;2023-04-01T03:00:12;3.22;;;1.60;;
78563;SDS011;67856;47.754;19.088;2023-04-01T03:03:15;4.43;;;1.90;;
78563;SDS011;67856;47.754;19.088;2023-04-01T03:06:17;2.63;;;1.60;;
78563;SDS011;67856;47.754;19.088;2023-04-01T03:09:20;3.27;;;1.73;;
78563;SDS011;67856;47.754;19.088;2023-04-01T03:12:22;2.35;;;1.77;;
78563;SDS011;67856;47.754;19.088;2023-04-01T03:15:26;2.90;;;2.10;;
78563;SDS011;67856;47.754;19.088;2023-04-01T03:18:29;3.67;;;1.70;;
78563;SDS011;67856;47.754;19.088;2023-04-01T03:21:32;2.50;;;1.50;;
78563;SDS011;67856;47.754;19.088;2023-04-01T03:24:35;3.93;;;1.70;;
78563;SDS011;67856;47.754;19.088;2023-04-01T03:27:37;4.10;;;2.20;;
78563;SDS011;67856;47.754;19.088;2023-04-01T03:30:41;2.42;;;1.75;;
78563;SDS011;67856;47.754;19.088;2023-04-01T03:33:44;3.30;;;1.80;;
78563;SDS011;67856;47.754;19.088;2023-04-01T03:36:46;3.30;;;1.73;;
78563;SDS011;67856;47.754;19.088;2023-04-01T03:39:49;3.20;;;1.53;;
78563;SDS011;67856;47.754;19.088;2023-04-01T03:42:52;2.92;;;1.77;;
78563;SDS011;67856;47.754;19.088;2023-04-01T03:45:54;3.30;;;1.85;;
78563;SDS011;67856;47.754;19.088;2023-04-01T03:48:58;2.95;;;1.75;;
78563;SDS011;67856;47.754;19.088;2023-04-01T03:52:01;3.67;;;2.20;;
78563;SDS011;67856;47.754;19.088;2023-04-01T03:55:03;2.47;;;1.63;;
78563;SDS011;67856;47.754;19.088;2023-04-01T03:58:06;2.40;;;1.70;;
78563;SDS011;67856;47.754;19.088;2023-04-01T04:01:13;3.03;;;1.65;;
78563;SDS011;67856;47.754;19.088;2023-04-01T04:04:20;1.95;;;1.50;;
78563;SDS011;67856;47.754;19.088;2023-04-01T04:07:22;2.37;;;1.70;;
78563;SDS011;67856;47.754;19.088;2023-04-01T04:10:38;3.43;;;1.80;;
78563;SDS011;67856;47.754;19.088;2023-04-01T04:13:40;2.63;;;1.67;;
78563;SDS011;67856;47.754;19.088;2023-04-01T04:16:43;2.88;;;1.83;;
78563;SDS011;67856;47.754;19.088;2023-04-01T04:19:46;2.78;;;1.55;;
78563;SDS011;67856;47.754;19.088;2023-04-01T04:23:06;2.50;;;1.63;;
78563;SDS011;67856;47.754;19.088;2023-04-01T04:26:26;2.10;;;1.50;;
78563;SDS011;67856;47.754;19.088;2023-04-01T04:29:46;2.78;;;1.63;;
78563;SDS011;67856;47.754;19.088;2023-04-01T04:33:05;2.50;;;1.60;;
78563;SDS011;67856;47.754;19.088;2023-04-01T04:36:25;3.63;;;1.73;;
78563;SDS011;67856;47.754;19.088;2023-04-01T04:39:45;2.10;;;1.37;;
78563;SDS011;67856;47.754;19.088;2023-04-01T04:43:06;3.67;;;1.60;;
78563;SDS011;67856;47.754;19.088;2023-04-01T04:46:26;2.75;;;1.80;;
78563;SDS011;67856;47.754;19.088;2023-04-01T04:49:48;2.88;;;1.50;;
78563;SDS011;67856;47.754;19.088;2023-04-01T04:53:11;2.55;;;1.60;;
78563;SDS011;67856;47.754;19.088;2023-04-01T04:56:32;2.17;;;1.40;;
78563;SDS011;67856;47.754;19.088;2023-04-01T04:59:52;2.03;;;1.40;;
78563;SDS011;67856;47.754;19.088;2023-04-01T05:03:21;2.30;;;1.40;;
78563;SDS011;67856;47.754;19.088;2023-04-01T05:06:42;2.42;;;1.55;;
78563;SDS011;67856;47.754;19.088;2023-04-01T05:10:03;2.60;;;1.63;;
78563;SDS011;67856;47.754;19.088;2023-04-01T05:13:24;2.67;;;1.40;;
78563;SDS011;67856;47.754;19.088;2023-04-01T05:16:44;2.37;;;1.53;;
78563;SDS011;67856;47.754;19.088;2023-04-01T05:20:04;3.08;;;1.42;;
78563;SDS011;67856;47.754;19.088;2023-04-01T05:23:25;2.10;;;1.60;;
78563;SDS011;67856;47.754;19.088;2023-04-01T05:26:45;2.70;;;1.60;;
78563;SDS011;67856;47.754;19.088;2023-04-01T05:30:05;2.60;;;1.50;;
78563;SDS011;67856;47.754;19.088;2023-04-01T05:33:37;1.90;;;1.40;;
78563;SDS011;67856;47.754;19.088;2023-04-01T05:36:57;2.10;;;1.50;;
78563;SDS011;67856;47.754;19.088;2023-04-01T05:40:17;2.22;;;1.33;;
78563;SDS011;67856;47.754;19.088;2023-04-01T05:43:37;2.13;;;1.45;;
78563;SDS011;67856;47.754;19.088;2023-04-01T05:47:12;2.67;;;1.60;;
78563;SDS011;67856;47.754;19.088;2023-04-01T05:50:32;2.10;;;1.30;;
78563;SDS011;67856;47.754;19.088;2023-04-01T05:53:53;1.98;;;1.50;;
78563;SDS011;67856;47.754;19.088;2023-04-01T05:57:13;3.03;;;1.58;;
78563;SDS011;67856;47.754;19.088;2023-04-01T06:00:33;3.20;;;1.55;;
78563;SDS011;67856;47.754;19.088;2023-04-01T06:03:52;3.47;;;1.50;;
78563;SDS011;67856;47.754;19.088;2023-04-01T06:07:12;1.87;;;1.40;;
78563;SDS011;67856;47.754;19.088;2023-04-01T06:11:21;2.45;;;1.30;;
78563;SDS011;67856;47.754;19.088;2023-04-01T06:36:39;2.08;;;1.30;;
78563;SDS011;67856;47.754;19.088;2023-04-01T06:40:22;1.83;;;1.30;;
78563;SDS011;67856;47.754;19.088;2023-04-01T06:43:59;2.13;;;1.13;;
78563;SDS011;67856;47.754;19.088;2023-04-01T06:47:50;1.80;;;1.40;;
78563;SDS011;67856;47.754;19.088;2023-04-01T06:51:47;1.85;;;1.40;;
78563;SDS011;67856;47.754;19.088;2023-04-01T06:59:45;1.97;;;1.30;;
78563;SDS011;67856;47.754;19.088;2023-04-01T07:06:47;2.10;;;1.30;;
78563;SDS011;67856;47.754;19.088;2023-04-01T07:10:19;1.75;;;1.20;;
78563;SDS011;67856;47.754;19.088;2023-04-01T07:14:31;2.10;;;1.40;;
78563;SDS011;67856;47.754;19.088;2023-04-01T07:17:55;2.30;;;1.40;;
78563;SDS011;67856;47.754;19.088;2023-04-01T07:21:22;2.00;;;1.40;;
78563;SDS011;67856;47.754;19.088;2023-04-01T07:24:53;1.77;;;1.38;;
78563;SDS011;67856;47.754;19.088;2023-04-01T07:28:14;1.73;;;1.30;;
78563;SDS011;67856;47.754;19.088;2023-04-01T07:32:01;2.08;;;1.42;;
78563;SDS011;67856;47.754;19.088;2023-04-01T07:47:10;2.13;;;1.27;;
78563;SDS011;67856;47.754;19.088;2023-04-01T08:01:30;1.40;;;1.20;;
78563;SDS011;67856;47.754;19.088;2023-04-01T08:16:41;2.40;;;1.03;;
78563;SDS011;67856;47.754;19.088;2023-04-01T08:23:48;1.77;;;1.10;;
78563;SDS011;67856;47.754;19.088;2023-04-01T08:31:05;2.17;;;1.07;;
78563;SDS011;67856;47.754;19.088;2023-04-01T08:34:34;1.90;;;1.30;;
78563;SDS011;67856;47.754;19.088;2023-04-01T08:38:12;1.88;;;1.25;;
78563;SDS011;67856;47.754;19.088;2023-04-01T08:45:48;1.73;;;1.10;;
78563;SDS011;67856;47.754;19.088;2023-04-01T08:56:42;1.38;;;0.90;;
78563;SDS011;67856;47.754;19.088;2023-04-01T09:32:42;2.65;;;1.08;;
78563;SDS011;67856;47.754;19.088;2023-04-01T09:36:43;1.98;;;1.23;;
78563;SDS011;67856;47.754;19.088;2023-04-01T09:40:15;1.77;;;1.08;;
78563;SDS011;67856;47.754;19.088;2023-04-01T09:55:30;1.88;;;1.00;;
78563;SDS011;67856;47.754;19.088;2023-04-01T09:59:36;1.88;;;1.10;;
78563;SDS011;67856;47.754;19.088;2023-04-01T10:06:58;1.00;;;0.80;;
78563;SDS011;67856;47.754;19.088;2023-04-01T10:37:49;1.58;;;1.10;;
78563;SDS011;67856;47.754;19.088;2023-04-01T10:45:37;1.57;;;0.90;;
78563;SDS011;67856;47.754;19.088;2023-04-01T11:16:51;1.73;;;1.00;;
78563;SDS011;67856;47.754;19.088;2023-04-01T11:38:58;1.97;;;0.90;;
78563;SDS011;67856;47.754;19.088;2023-04-01T11:42:59;1.20;;;0.80;;
78563;SDS011;67856;47.754;19.088;2023-04-01T11:57:55;1.40;;;0.83;;
78563;SDS011;67856;47.754;19.088;2023-04-01T12:16:46;1.40;;;0.83;;
78563;SDS011;67856;47.754;19.088;2023-04-01T12:20:57;1.60;;;0.90;;
78563;SDS011;67856;47.754;19.088;2023-04-01T12:35:19;1.60;;;0.90;;
78563;SDS011;67856;47.754;19.088;2023-04-01T12:39:02;1.53;;;0.77;;
78563;SDS011;67856;47.754;19.088;2023-04-01T12:42:43;1.17;;;0.90;;
78563;SDS011;67856;47.754;19.088;2023-04-01T12:46:46;1.40;;;0.77;;
78563;SDS011;67856;47.754;19.088;2023-04-01T12:50:19;1.20;;;0.70;;
78563;SDS011;67856;47.754;19.088;2023-04-01T12:57:34;1.30;;;0.80;;
78563;SDS011;67856;47.754;19.088;2023-04-01T13:43:52;1.38;;;0.80;;
78563;SDS011;67856;47.754;19.088;2023-04-01T13:47:40;1.00;;;0.50;;
78563;SDS011;67856;47.754;19.088;2023-04-01T13:55:28;0.90;;;0.80;;
78563;SDS011;67856;47.754;19.088;2023-04-01T14:18:11;1.35;;;0.80;;
78563;SDS011;67856;47.754;19.088;2023-04-01T14:22:05;1.27;;;0.73;;
78563;SDS011;67856;47.754;19.088;2023-04-01T14:29:16;1.13;;;0.93;;
78563;SDS011;67856;47.754;19.088;2023-04-01T14:36:29;1.48;;;0.93;;
78563;SDS011;67856;47.754;19.088;2023-04-01T14:40:14;1.17;;;0.70;;
78563;SDS011;67856;47.754;19.088;2023-04-01T14:44:05;1.20;;;0.70;;
78563;SDS011;67856;47.754;19.088;2023-04-01T14:47:54;1.27;;;0.83;;
78563;SDS011;67856;47.754;19.088;2023-04-01T14:51:36;1.05;;;0.80;;
78563;SDS011;67856;47.754;19.088;2023-04-01T14:54:58;1.10;;;0.70;;
78563;SDS011;67856;47.754;19.088;2023-04-01T14:58:19;3.28;;;1.67;;
78563;SDS011;67856;47.754;19.088;2023-04-01T15:08:43;5.85;;;2.63;;
78563;SDS011;67856;47.754;19.088;2023-04-01T15:16:17;1.58;;;1.10;;
78563;SDS011;67856;47.754;19.088;2023-04-01T15:20:33;1.97;;;1.03;;
78563;SDS011;67856;47.754;19.088;2023-04-01T15:27:34;1.88;;;1.05;;
78563;SDS011;67856;47.754;19.088;2023-04-01T15:30:53;1.10;;;0.90;;
78563;SDS011;67856;47.754;19.088;2023-04-01T15:34:32;1.25;;;0.90;;
78563;SDS011;67856;47.754;19.088;2023-04-01T15:38:02;1.97;;;0.80;;
78563;SDS011;67856;47.754;19.088;2023-04-01T15:41:35;0.90;;;0.60;;
78563;SDS011;67856;47.754;19.088;2023-04-01T15:45:15;1.13;;;0.80;;
78563;SDS011;67856;47.754;19.088;2023-04-01T15:49:00;1.40;;;0.85;;
78563;SDS011;67856;47.754;19.088;2023-04-01T16:03:50;1.63;;;0.70;;
78563;SDS011;67856;47.754;19.088;2023-04-01T16:10:44;1.00;;;0.63;;
78563;SDS011;67856;47.754;19.088;2023-04-01T16:21:53;1.02;;;0.68;;
78563;SDS011;67856;47.754;19.088;2023-04-01T16:25:26;1.15;;;0.68;;
78563;SDS011;67856;47.754;19.088;2023-04-01T16:36:54;1.07;;;0.70;;
78563;SDS011;67856;47.754;19.088;2023-04-01T16:40:26;1.02;;;0.52;;
78563;SDS011;67856;47.754;19.088;2023-04-01T16:47:46;1.17;;;0.95;;
78563;SDS011;67856;47.754;19.088;2023-04-01T16:51:15;1.20;;;0.80;;
78563;SDS011;67856;47.754;19.088;2023-04-01T16:54:38;0.87;;;0.60;;
78563;SDS011;67856;47.754;19.088;2023-04-01T17:16:31;1.38;;;0.77;;
78563;SDS011;67856;47.754;19.088;2023-04-01T17:20:07;0.82;;;0.60;;
78563;SDS011;67856;47.754;19.088;2023-04-01T17:23:49;0.90;;;0.65;;
78563;SDS011;67856;47.754;19.088;2023-04-01T17:27:28;1.20;;;0.60;;
78563;SDS011;67856;47.754;19.088;2023-04-01T17:48:18;0.90;;;0.70;;
78563;SDS011;67856;47.754;19.088;2023-04-01T17:59:37;1.45;;;0.80;;
78563;SDS011;67856;47.754;19.088;2023-04-01T18:10:53;1.20;;;0.70;;
78563;SDS011;67856;47.754;19.088;2023-04-01T18:25:17;1.03;;;0.70;;
78563;SDS011;67856;47.754;19.088;2023-04-01T18:28:52;1.40;;;0.90;;
78563;SDS011;67856;47.754;19.088;2023-04-01T18:32:23;0.80;;;0.50;;
78563;SDS011;67856;47.754;19.088;2023-04-01T18:39:15;1.17;;;0.77;;
78563;SDS011;67856;47.754;19.088;2023-04-01T18:42:53;0.83;;;0.50;;
78563;SDS011;67856;47.754;19.088;2023-04-01T18:57:15;0.90;;;0.60;;
78563;SDS011;67856;47.754;19.088;2023-04-01T19:00:41;0.70;;;0.43;;
78563;SDS011;67856;47.754;19.088;2023-04-01T19:04:27;0.80;;;0.57;;
78563;SDS011;67856;47.754;19.088;2023-04-01T19:08:40;0.85;;;0.60;;
78563;SDS011;67856;47.754;19.088;2023-04-01T19:12:06;1.27;;;0.80;;
78563;SDS011;67856;47.754;19.088;2023-04-01T19:22:23;1.90;;;0.65;;
78563;SDS011;67856;47.754;19.088;2023-04-01T19:25:55;0.77;;;0.55;;
78563;SDS011;67856;47.754;19.088;2023-04-01T19:40:15;0.70;;;0.50;;
78563;SDS011;67856;47.754;19.088;2023-04-01T19:47:16;1.00;;;0.65;;
78563;SDS011;67856;47.754;19.088;2023-04-01T19:50:55;0.80;;;0.43;;
78563;SDS011;67856;47.754;19.088;2023-04-01T19:54:21;1.10;;;0.60;;
78563;SDS011;67856;47.754;19.088;2023-04-01T20:01:20;1.02;;;0.85;;
78563;SDS011;67856;47.754;19.088;2023-04-01T20:04:44;0.80;;;0.40;;
78563;SDS011;67856;47.754;19.088;2023-04-01T20:08:16;0.80;;;0.60;;
78563;SDS011;67856;47.754;19.088;2023-04-01T20:15:38;1.02;;;0.52;;
78563;SDS011;67856;47.754;19.088;2023-04-01T20:19:00;0.88;;;0.50;;
78563;SDS011;67856;47.754;19.088;2023-04-01T20:26:08;0.77;;;0.50;;
78563;SDS011;67856;47.754;19.088;2023-04-01T20:33:23;1.17;;;0.60;;
78563;SDS011;67856;47.754;19.088;2023-04-01T20:37:23;1.30;;;0.80;;
78563;SDS011;67856;47.754;19.088;2023-04-01T20:40:50;1.38;;;0.70;;
78563;SDS011;67856;47.754;19.088;2023-04-01T20:44:12;1.17;;;0.73;;
78563;SDS011;67856;47.754;19.088;2023-04-01T20:51:19;1.48;;;0.85;;
78563;SDS011;67856;47.754;19.088;2023-04-01T21:09:27;1.00;;;0.57;;
78563;SDS011;67856;47.754;19.088;2023-04-01T21:13:15;1.20;;;0.80;;
78563;SDS011;67856;47.754;19.088;2023-04-01T21:16:51;1.30;;;0.80;;
78563;SDS011;67856;47.754;19.088;2023-04-01T21:27:34;1.63;;;0.75;;
78563;SDS011;67856;47.754;19.088;2023-04-01T21:31:07;1.15;;;0.70;;
78563;SDS011;67856;47.754;19.088;2023-04-01T21:38:51;1.63;;;1.00;;
78563;SDS011;67856;47.754;19.088;2023-04-01T21:49:56;1.23;;;0.80;;
78563;SDS011;67856;47.754;19.088;2023-04-01T22:07:59;2.33;;;1.30;;
78563;SDS011;67856;47.754;19.088;2023-04-01T22:18:50;1.50;;;0.97;;
78563;SDS011;67856;47.754;19.088;2023-04-01T22:43:44;1.25;;;0.93;;
78563;SDS011;67856;47.754;19.088;2023-04-01T22:50:46;1.00;;;0.70;;
78563;SDS011;67856;47.754;19.088;2023-04-01T22:54:27;1.20;;;0.70;;
78563;SDS011;67856;47.754;19.088;2023-04-01T22:57:52;1.10;;;0.88;;
78563;SDS011;67856;47.754;19.088;2023-04-01T23:01:16;0.98;;;0.55;;
78563;SDS011;67856;47.754;19.088;2023-04-01T23:04:42;1.17;;;0.75;;
78563;SDS011;67856;47.754;19.088;2023-04-01T23:12:07;0.90;;;0.77;;
78563;SDS011;67856;47.754;19.088;2023-04-01T23:15:29;1.30;;;0.80;;
78563;SDS011;67856;47.754;19.088;2023-04-01T23:19:32;1.10;;;0.85;;
78563;SDS011;67856;47.754;19.088;2023-04-01T23:23:26;0.90;;;0.65;;
78563;SDS011;67856;47.754;19.088;2023-04-01T23:26:25;0.93;;;0.70;;
78563;SDS011;67856;47.754;19.088;2023-04-01T23:29:49;1.37;;;0.60;;
78563;SDS011;67856;47.754;19.088;2023-04-01T23:33:24;1.33;;;0.70;;
78563;SDS011;67856;47.754;19.088;2023-04-01T23:36:50;1.08;;;0.60;;
78563;SDS011;67856;47.754;19.088;2023-04-01T23:40:12;0.95;;;0.60;;
78563;SDS011;67856;47.754;19.088;2023-04-01T23:43:34;1.20;;;0.67;;
78563;SDS011;67856;47.754;19.088;2023-04-01T23:46:57;1.27;;;0.70;;
78563;SDS011;67856;47.754;19.088;2023-04-01T23:50:26;1.00;;;0.77;;
78563;SDS011;67856;47.754;19.088;2023-04-01T23:53:47;1.15;;;0.68;;
78563;SDS011;67856;47.754;19.088;2023-04-01T23:58:20;0.93;;;0.57;;
